createdAt,value
2022-12-29T00:01:18.706Z,100.00
2022-12-29T00:04:21.155Z,100.00
2022-12-29T00:07:23.413Z,100.00
2022-12-29T00:10:26.185Z,100.00
2022-12-29T00:13:47.167Z,100.00
2022-12-29T00:16:49.657Z,100.00
2022-12-29T00:20:10.678Z,100.00
2022-12-29T00:23:31.589Z,100.00
2022-12-29T00:26:53.291Z,100.00
2022-12-29T00:30:14.681Z,100.00
2022-12-29T00:33:39.845Z,100.00
2022-12-29T00:36:43.432Z,100.00
2022-12-29T00:40:04.488Z,100.00
2022-12-29T00:43:25.747Z,100.00
2022-12-29T00:46:28.023Z,100.00
2022-12-29T00:49:31.969Z,100.00
2022-12-29T00:52:34.151Z,100.00
2022-12-29T00:55:39.833Z,100.00
2022-12-29T00:58:42.099Z,100.00
2022-12-29T01:01:45.772Z,100.00
2022-12-29T01:04:48.056Z,100.00
2022-12-29T01:07:51.730Z,100.00
2022-12-29T01:11:08.178Z,100.00
2022-12-29T01:14:10.714Z,100.00
2022-12-29T01:17:13.175Z,100.00
2022-12-29T01:20:16.628Z,100.00
2022-12-29T01:23:19.083Z,100.00
2022-12-29T01:26:21.860Z,100.00
2022-12-29T01:29:24.169Z,100.00
2022-12-29T01:32:26.698Z,100.00
2022-12-29T01:35:29.298Z,100.00
2022-12-29T01:38:35.721Z,100.00
2022-12-29T01:41:37.976Z,100.00
2022-12-29T01:45:01.158Z,100.00
2022-12-29T01:48:09.451Z,100.00
2022-12-29T01:51:12.121Z,100.00
2022-12-29T01:54:23.667Z,100.00
2022-12-29T01:57:30.937Z,100.00
2022-12-29T02:00:33.325Z,100.00
2022-12-29T02:03:37.620Z,100.00
2022-12-29T02:06:51.572Z,100.00
2022-12-29T02:09:56.129Z,100.00
2022-12-29T02:12:58.252Z,100.00
2022-12-29T02:16:27.510Z,100.00
2022-12-29T02:19:48.508Z,100.00
2022-12-29T02:23:18.717Z,100.00
2022-12-29T02:26:50.704Z,100.00
2022-12-29T02:30:35.331Z,100.00
2022-12-29T02:34:14.736Z,100.00
2022-12-29T02:37:49.565Z,100.00
2022-12-29T02:40:54.771Z,100.00
2022-12-29T02:44:15.015Z,100.00
2022-12-29T02:47:30.488Z,100.00
2022-12-29T02:51:25.493Z,100.00
2022-12-29T02:54:44.073Z,100.00
2022-12-29T02:57:46.652Z,100.00
2022-12-29T03:01:14.799Z,100.00
2022-12-29T03:04:28.077Z,100.00
2022-12-29T03:07:35.282Z,100.00
2022-12-29T03:11:03.246Z,100.00
2022-12-29T03:14:43.204Z,100.00
2022-12-29T03:18:11.797Z,100.00
2022-12-29T03:21:47.186Z,100.00
2022-12-29T03:24:54.020Z,100.00
2022-12-29T03:28:01.399Z,100.00
2022-12-29T03:31:06.025Z,100.00
2022-12-29T03:34:10.556Z,100.00
2022-12-29T03:37:17.998Z,100.00
2022-12-29T03:40:23.981Z,100.00
2022-12-29T03:43:27.928Z,100.00
2022-12-29T03:46:30.520Z,100.00
2022-12-29T03:49:33.499Z,100.00
2022-12-29T03:52:38.929Z,100.00
2022-12-29T03:55:42.328Z,100.00
2022-12-29T03:58:45.528Z,100.00
2022-12-29T04:01:49.542Z,100.00
2022-12-29T04:04:52.291Z,100.00
2022-12-29T04:07:54.732Z,100.00
2022-12-29T04:10:57.243Z,100.00
2022-12-29T04:13:59.688Z,100.00
2022-12-29T04:17:02.525Z,100.00
2022-12-29T04:20:24.641Z,100.00
2022-12-29T04:23:28.708Z,100.00
2022-12-29T04:26:30.847Z,100.00
2022-12-29T04:29:33.825Z,100.00
2022-12-29T04:32:36.588Z,100.00
2022-12-29T04:35:39.255Z,100.00
2022-12-29T04:38:41.477Z,100.00
2022-12-29T04:41:44.727Z,100.00
2022-12-29T04:44:48.061Z,100.00
2022-12-29T04:47:50.735Z,100.00
2022-12-29T04:50:56.052Z,100.00
2022-12-29T04:53:58.689Z,100.00
2022-12-29T04:57:03.119Z,100.00
2022-12-29T05:00:06.667Z,100.00
2022-12-29T05:03:11.967Z,100.00
2022-12-29T05:06:14.878Z,100.00
2022-12-29T05:09:17.936Z,100.00
2022-12-29T05:12:21.115Z,100.00
2022-12-29T05:15:23.704Z,100.00
2022-12-29T05:18:26.288Z,100.00
2022-12-29T05:21:29.595Z,100.00
2022-12-29T05:24:32.875Z,100.00
2022-12-29T05:27:36.266Z,100.00
2022-12-29T05:30:39.944Z,100.00
2022-12-29T05:33:42.447Z,100.00
2022-12-29T05:36:45.024Z,100.00
2022-12-29T05:39:47.360Z,100.00
2022-12-29T05:42:50.012Z,100.00
2022-12-29T05:45:54.953Z,100.00
2022-12-29T05:48:58.822Z,100.00
2022-12-29T05:52:01.011Z,100.00
2022-12-29T05:55:04.452Z,100.00
2022-12-29T05:58:07.274Z,100.00
2022-12-29T06:01:10.007Z,100.00
2022-12-29T06:04:13.364Z,100.00
2022-12-29T06:07:15.575Z,100.00
2022-12-29T06:10:18.440Z,100.00
2022-12-29T06:13:21.164Z,100.00
2022-12-29T06:16:24.382Z,100.00
2022-12-29T06:19:27.247Z,100.00
2022-12-29T06:22:29.785Z,100.00
2022-12-29T06:25:33.367Z,100.00
2022-12-29T06:28:35.849Z,100.00
2022-12-29T06:31:38.422Z,100.00
2022-12-29T06:34:40.991Z,100.00
2022-12-29T06:37:44.201Z,100.00
2022-12-29T06:40:46.745Z,100.00
2022-12-29T06:43:51.498Z,100.00
2022-12-29T06:46:55.099Z,100.00
2022-12-29T06:49:57.300Z,100.00
2022-12-29T06:52:59.776Z,100.00
2022-12-29T06:56:02.004Z,100.00
2022-12-29T06:59:04.908Z,100.00
2022-12-29T07:02:07.703Z,100.00
2022-12-29T07:05:11.141Z,100.00
2022-12-29T07:08:13.387Z,100.00
2022-12-29T07:11:16.744Z,100.00
2022-12-29T07:14:19.919Z,100.00
2022-12-29T07:17:22.396Z,100.00
2022-12-29T07:20:27.050Z,100.00
2022-12-29T07:23:30.095Z,100.00
2022-12-29T07:26:36.247Z,100.00
2022-12-29T07:29:39.389Z,100.00
2022-12-29T07:32:41.985Z,100.00
2022-12-29T07:35:44.485Z,100.00
2022-12-29T07:38:46.728Z,100.00
2022-12-29T07:41:49.217Z,100.00
2022-12-29T07:44:53.041Z,100.00
2022-12-29T07:47:56.703Z,99.66
2022-12-29T07:50:58.863Z,98.99
2022-12-29T07:54:01.765Z,98.43
2022-12-29T07:57:04.963Z,98.64
2022-12-29T08:00:08.119Z,98.00
2022-12-29T08:03:14.166Z,97.70
2022-12-29T08:06:16.689Z,97.26
2022-12-29T08:09:22.716Z,96.87
2022-12-29T08:12:26.966Z,96.09
2022-12-29T08:15:32.592Z,96.39
2022-12-29T08:18:35.517Z,96.42
2022-12-29T08:21:37.747Z,95.99
2022-12-29T08:24:40.265Z,95.51
2022-12-29T08:27:42.477Z,94.09
2022-12-29T08:30:45.080Z,93.82
2022-12-29T08:33:47.263Z,93.82
2022-12-29T08:36:49.796Z,93.92
2022-12-29T08:39:51.963Z,93.72
2022-12-29T08:42:54.411Z,93.76
2022-12-29T08:45:58.694Z,92.00
2022-12-29T08:49:01.192Z,92.72
2022-12-29T08:52:03.872Z,92.57
2022-12-29T08:55:06.720Z,90.52
2022-12-29T08:58:09.256Z,89.22
2022-12-29T09:01:12.051Z,89.24
2022-12-29T09:04:16.466Z,88.17
2022-12-29T09:07:20.022Z,88.51
2022-12-29T09:10:22.216Z,88.01
2022-12-29T09:13:24.756Z,89.82
2022-12-29T09:16:28.006Z,90.40
2022-12-29T09:19:31.150Z,90.63
2022-12-29T09:22:33.368Z,90.46
2022-12-29T09:25:35.842Z,90.41
2022-12-29T09:28:38.222Z,90.29
2022-12-29T09:31:40.778Z,90.09
2022-12-29T09:34:43.089Z,89.02
2022-12-29T09:37:45.596Z,86.41
2022-12-29T09:41:17.987Z,86.24
2022-12-29T09:44:49.116Z,87.07
2022-12-29T09:47:51.975Z,87.40
2022-12-29T09:51:00.046Z,86.22
2022-12-29T09:54:23.185Z,86.83
2022-12-29T09:57:30.528Z,86.32
2022-12-29T10:00:42.539Z,84.77
2022-12-29T10:03:57.852Z,85.12
2022-12-29T10:07:28.992Z,84.72
2022-12-29T10:10:41.795Z,84.73
2022-12-29T10:14:16.461Z,84.92
2022-12-29T10:17:31.807Z,86.37
2022-12-29T10:21:01.762Z,86.32
2022-12-29T10:24:08.175Z,85.14
2022-12-29T10:27:16.756Z,85.11
2022-12-29T10:30:19.711Z,83.79
2022-12-29T10:33:32.983Z,83.41
2022-12-29T10:36:48.366Z,83.27
2022-12-29T10:39:53.604Z,83.59
2022-12-29T10:42:58.499Z,82.84
2022-12-29T10:46:05.578Z,84.13
2022-12-29T10:49:21.539Z,83.82
2022-12-29T10:52:26.230Z,83.96
2022-12-29T10:55:39.088Z,84.09
2022-12-29T10:58:49.262Z,85.46
2022-12-29T11:02:13.604Z,85.48
2022-12-29T11:05:41.072Z,86.37
2022-12-29T11:08:54.840Z,86.46
2022-12-29T11:11:57.200Z,86.32
2022-12-29T11:15:08.791Z,85.64
2022-12-29T11:18:32.625Z,86.28
2022-12-29T11:21:42.926Z,86.10
2022-12-29T11:24:46.893Z,86.04
2022-12-29T11:28:16.383Z,85.95
2022-12-29T11:31:22.832Z,85.69
2022-12-29T11:34:33.861Z,85.89
2022-12-29T11:37:40.662Z,86.66
2022-12-29T11:40:43.384Z,85.98
2022-12-29T11:43:46.322Z,85.63
2022-12-29T11:46:51.979Z,79.45
2022-12-29T11:49:58.901Z,72.52
2022-12-29T11:53:21.545Z,66.33
2022-12-29T11:56:38.424Z,60.37
2022-12-29T11:59:50.196Z,55.86
2022-12-29T12:02:59.711Z,54.04
2022-12-29T12:06:03.537Z,53.89
2022-12-29T12:09:15.605Z,52.69
2022-12-29T12:12:27.708Z,51.84
2022-12-29T12:15:56.810Z,52.54
2022-12-29T12:19:13.415Z,53.81
2022-12-29T12:22:32.736Z,58.45
2022-12-29T12:26:13.466Z,62.44
2022-12-29T12:29:25.504Z,65.96
2022-12-29T12:32:43.929Z,68.55
2022-12-29T12:36:19.967Z,70.07
2022-12-29T12:39:28.223Z,72.42
2022-12-29T12:42:36.501Z,72.99
2022-12-29T12:45:53.982Z,72.11
2022-12-29T12:49:05.116Z,71.29
2022-12-29T12:52:25.894Z,70.24
2022-12-29T12:55:44.151Z,68.47
2022-12-29T12:59:09.566Z,68.95
2022-12-29T13:02:27.569Z,69.54
2022-12-29T13:05:58.199Z,71.02
2022-12-29T13:09:16.341Z,72.03
2022-12-29T13:12:31.296Z,71.65
2022-12-29T13:15:42.645Z,72.01
2022-12-29T13:18:51.133Z,72.76
2022-12-29T13:22:06.978Z,75.14
2022-12-29T13:25:24.920Z,76.81
2022-12-29T13:28:31.558Z,77.24
2022-12-29T13:31:40.729Z,77.66
2022-12-29T13:35:05.031Z,77.05
2022-12-29T13:38:13.235Z,75.42
2022-12-29T13:41:22.778Z,73.83
2022-12-29T13:44:37.071Z,73.25
2022-12-29T13:48:07.648Z,73.39
2022-12-29T13:51:11.382Z,74.70
2022-12-29T13:55:03.284Z,76.09
2022-12-29T13:58:21.656Z,76.94
2022-12-29T14:01:37.004Z,78.47
2022-12-29T14:04:57.099Z,79.57
2022-12-29T14:08:02.407Z,80.91
2022-12-29T14:11:11.227Z,81.60
2022-12-29T14:14:28.837Z,82.78
2022-12-29T14:17:31.640Z,83.22
2022-12-29T14:20:35.078Z,84.63
2022-12-29T14:23:43.609Z,84.57
2022-12-29T14:26:45.680Z,85.35
2022-12-29T14:29:52.692Z,86.82
2022-12-29T14:33:14.269Z,87.79
2022-12-29T14:36:27.860Z,88.38
2022-12-29T14:39:36.015Z,89.36
2022-12-29T14:42:41.221Z,89.49
2022-12-29T14:45:43.801Z,91.15
2022-12-29T14:48:46.501Z,91.79
2022-12-29T14:51:49.883Z,92.88
2022-12-29T14:54:53.550Z,92.82
2022-12-29T14:58:02.500Z,93.39
2022-12-29T15:01:16.065Z,93.50
2022-12-29T15:04:23.931Z,93.75
2022-12-29T15:07:28.632Z,95.20
2022-12-29T15:10:40.591Z,95.20
2022-12-29T15:13:45.132Z,95.90
2022-12-29T15:16:47.337Z,96.20
2022-12-29T15:19:49.875Z,97.24
2022-12-29T15:22:58.521Z,97.74
2022-12-29T15:26:03.683Z,99.32
2022-12-29T15:29:06.196Z,98.92
2022-12-29T15:32:27.133Z,98.47
2022-12-29T15:35:37.836Z,97.67
2022-12-29T15:38:40.853Z,97.46
2022-12-29T15:42:04.926Z,97.36
2022-12-29T15:45:13.404Z,98.39
2022-12-29T15:48:24.990Z,98.64
2022-12-29T15:51:32.223Z,98.86
2022-12-29T15:54:34.863Z,98.81
2022-12-29T15:57:44.016Z,98.94
2022-12-29T16:00:55.745Z,99.91
2022-12-29T16:04:06.509Z,100.00
2022-12-29T16:07:26.982Z,100.00
2022-12-29T16:10:47.982Z,100.00
2022-12-29T16:13:53.354Z,100.00
2022-12-29T16:17:00.207Z,100.00
2022-12-29T16:20:24.835Z,100.00
2022-12-29T16:23:30.578Z,100.00
2022-12-29T16:26:32.949Z,100.00
2022-12-29T16:29:36.337Z,100.00
2022-12-29T16:32:47.661Z,100.00
2022-12-29T16:35:50.410Z,100.00
2022-12-29T16:39:18.957Z,100.00
2022-12-29T16:42:51.367Z,100.00
2022-12-29T16:45:54.595Z,100.00
2022-12-29T16:48:58.353Z,100.00
2022-12-29T16:52:01.043Z,100.00
2022-12-29T16:55:04.281Z,100.00
2022-12-29T16:58:06.538Z,100.00
2022-12-29T17:01:15.518Z,100.00
2022-12-29T17:04:17.723Z,100.00
2022-12-29T17:07:23.450Z,100.00
2022-12-29T17:10:45.601Z,100.00
2022-12-29T17:13:48.057Z,100.00
2022-12-29T17:16:50.562Z,100.00
2022-12-29T17:19:59.803Z,100.00
2022-12-29T17:23:02.674Z,100.00
2022-12-29T17:26:13.629Z,100.00
2022-12-29T17:29:38.241Z,100.00
2022-12-29T17:32:42.716Z,100.00
2022-12-29T17:35:47.435Z,100.00
2022-12-29T17:38:52.949Z,100.00
2022-12-29T17:41:55.191Z,100.00
2022-12-29T17:44:57.928Z,100.00
2022-12-29T17:48:01.789Z,100.00
2022-12-29T17:51:04.636Z,100.00
2022-12-29T17:54:07.003Z,100.00
2022-12-29T17:57:15.663Z,100.00
2022-12-29T18:00:20.219Z,100.00
2022-12-29T18:03:35.192Z,100.00
2022-12-29T18:06:37.633Z,100.00
2022-12-29T18:09:40.169Z,100.00
2022-12-29T18:12:44.791Z,100.00
2022-12-29T18:15:47.755Z,100.00
2022-12-29T18:18:49.965Z,100.00
2022-12-29T18:21:52.540Z,100.00
2022-12-29T18:24:55.142Z,100.00
2022-12-29T18:27:58.059Z,100.00
2022-12-29T18:31:01.819Z,100.00
2022-12-29T18:34:13.165Z,100.00
2022-12-29T18:37:15.379Z,100.00
2022-12-29T18:40:19.518Z,100.00
2022-12-29T18:43:22.518Z,100.00
2022-12-29T18:46:25.177Z,100.00
2022-12-29T18:49:27.450Z,100.00
2022-12-29T18:52:29.962Z,100.00
2022-12-29T18:55:32.828Z,100.00
2022-12-29T18:58:35.916Z,100.00
2022-12-29T19:01:38.491Z,100.00
2022-12-29T19:04:41.069Z,100.00
2022-12-29T19:07:43.250Z,100.00
2022-12-29T19:10:46.042Z,100.00
2022-12-29T19:13:48.243Z,100.00
2022-12-29T19:16:50.681Z,100.00
2022-12-29T19:19:52.854Z,100.00
2022-12-29T19:22:57.005Z,100.00
2022-12-29T19:25:59.228Z,100.00
2022-12-29T19:29:02.535Z,100.00
2022-12-29T19:32:04.972Z,100.00
2022-12-29T19:35:09.748Z,100.00
2022-12-29T19:38:13.013Z,100.00
2022-12-29T19:41:15.656Z,100.00
2022-12-29T19:44:17.733Z,100.00
2022-12-29T19:47:21.047Z,100.00
2022-12-29T19:50:23.701Z,100.00
2022-12-29T19:53:26.316Z,100.00
2022-12-29T19:56:28.558Z,100.00
2022-12-29T19:59:31.062Z,100.00
2022-12-29T20:02:34.281Z,100.00
2022-12-29T20:05:36.801Z,100.00
2022-12-29T20:08:39.982Z,100.00
2022-12-29T20:11:42.463Z,100.00
2022-12-29T20:14:45.715Z,100.00
2022-12-29T20:21:19.422Z,100.00
2022-12-29T20:24:21.937Z,100.00
2022-12-29T20:27:24.131Z,100.00
2022-12-29T20:30:26.908Z,100.00
2022-12-29T20:33:31.675Z,100.00
2022-12-29T20:36:35.230Z,100.00
2022-12-29T20:39:37.673Z,100.00
2022-12-29T20:42:40.115Z,100.00
2022-12-29T20:45:42.538Z,100.00
2022-12-29T20:48:45.168Z,100.00
2022-12-29T20:52:05.735Z,100.00
2022-12-29T20:55:09.061Z,100.00
2022-12-29T20:58:23.571Z,100.00
2022-12-29T21:01:27.158Z,100.00
2022-12-29T21:04:43.797Z,100.00
2022-12-29T21:07:52.651Z,100.00
2022-12-29T21:10:54.839Z,100.00
2022-12-29T21:14:01.025Z,100.00
2022-12-29T21:17:03.691Z,100.00
2022-12-29T21:20:06.833Z,100.00
2022-12-29T21:23:09.808Z,100.00
2022-12-29T21:26:16.355Z,100.00
2022-12-29T21:29:18.508Z,100.00
2022-12-29T21:32:21.016Z,100.00
2022-12-29T21:35:23.471Z,100.00
2022-12-29T21:38:29.122Z,100.00
2022-12-29T21:41:32.298Z,100.00
2022-12-29T21:44:53.736Z,100.00
2022-12-29T21:48:18.558Z,100.00
2022-12-29T21:51:39.271Z,100.00
2022-12-29T21:55:00.083Z,100.00
2022-12-29T21:58:21.023Z,100.00
2022-12-29T22:01:43.155Z,100.00
2022-12-29T22:05:04.698Z,100.00
2022-12-29T22:08:25.751Z,100.00
2022-12-29T22:11:46.411Z,100.00
2022-12-29T22:14:48.547Z,100.00
2022-12-29T22:17:53.305Z,100.00
2022-12-29T22:20:55.432Z,100.00
2022-12-29T22:23:57.905Z,100.00
2022-12-29T22:27:01.017Z,100.00
2022-12-29T22:30:05.118Z,100.00
2022-12-29T22:33:07.414Z,100.00
2022-12-29T22:36:09.889Z,100.00
2022-12-29T22:39:12.062Z,100.00
2022-12-29T22:42:14.539Z,100.00
2022-12-29T22:45:16.816Z,100.00
2022-12-29T22:48:19.305Z,100.00
2022-12-29T22:51:21.450Z,100.00
2022-12-29T22:54:24.043Z,100.00
2022-12-29T22:57:26.252Z,100.00
2022-12-29T23:00:28.764Z,100.00
2022-12-29T23:03:31.125Z,100.00
2022-12-29T23:06:33.924Z,100.00
2022-12-29T23:09:36.448Z,100.00
2022-12-29T23:12:39.084Z,100.00
2022-12-29T23:15:41.441Z,100.00
2022-12-29T23:18:45.791Z,100.00
2022-12-29T23:21:48.005Z,100.00
2022-12-29T23:24:50.823Z,100.00
2022-12-29T23:27:53.059Z,100.00
2022-12-29T23:30:55.670Z,100.00
2022-12-29T23:33:59.866Z,100.00
2022-12-29T23:37:02.400Z,100.00
2022-12-29T23:40:05.045Z,100.00
2022-12-29T23:43:07.613Z,100.00
2022-12-29T23:46:12.695Z,100.00
2022-12-29T23:49:15.273Z,100.00
2022-12-29T23:52:17.857Z,100.00
2022-12-29T23:55:20.821Z,100.00
2022-12-29T23:58:23.245Z,100.00
